Pagrindinis puslapis
METAR-TAF:

METAR-TAF

Oro uostai :

Gomelis, Baltarusija

platuma: 52-31-36N, ilguma: 031-01-06E, Aukštis: 144 m

Dabartinis oras

Ataskaita buvo paskelbta 19 minutes, ne 08:30 UTC
Vėjas 6 kt iš Pietvakarių
Temperatūra 13°C
Drėgmė 72%
Slėgis 1020 hPa
Matomumas 10 km arba daugiau
nėra debesų žemiau 1500 m ir nėra kamuolinių lietaus debesų

METAR: UMGG 180830Z 23003MPS CAVOK 13/08 Q1020 R28/CLRD// NOSIG

Laikas: 11:49 (08:49 UTC)

Prognozė

Ataskaita buvo paskelbta 3 valandos ir 49 minutes, ne 05:00 UTC
Prognozė galioja nuo 18 metu 06 UTC su 19 metu 06 UTC
Vėjas 4 kt nuo kintamojo kryptimis
Matomumas 10 km arba daugiau
Išsisklaidę debesys ne aukštis 500 ft
Laikinai
nuo 18 metu 06 UTC su 18 metu 12 UTC
Vėjas 12 kt iš Vakarų/Pietvakarių
Laikinai
nuo 18 metu 15 UTC su 19 metu 06 UTC
Vėjas 10 kt iš Pietų/Pietryčių
Matomumas: 2000 m
Su prošvaistėmis ne aukštis 500 ft
rūkana

TAF: UMGG 180500Z 1806/1906 VRB02MPS 9999 SCT005 TEMPO 1806/1812 24006MPS TEMPO 1815/1906 16005MPS 2000 BR BKN005

Orai ataskaitas ir orų prognozės (METAR, TAF).

turimą stotys yra geltonos ir raudonos taškus žemėlapyje.

Perkelti pele per norėdami pamatyti stoties vardą.

Tada spustelėkite, norėdami matyti oro stebėjimo ir prognozės.

Norėdami pakeisti žemėlapį: spustelėkite ant žalios mygtukų su juodo kryžiaus žemyn,; žalią mygtuką su brūkšneliu, jei norite nutolinti; arba žalių rodyklių gretimoms žemėlapius.


METAR-TAF: